createdAt,value
2019-03-25T00:00:35.123Z,64.65
2019-03-25T00:01:35.106Z,64.86
2019-03-25T00:02:35.115Z,64.86
2019-03-25T00:03:35.072Z,64.65
2019-03-25T00:04:35.069Z,64.76
2019-03-25T00:05:35.080Z,64.65
2019-03-25T00:06:35.903Z,64.55
2019-03-25T00:07:35.262Z,64.86
2019-03-25T00:08:35.018Z,64.86
2019-03-25T00:09:35.013Z,65.17
2019-03-25T00:10:35.098Z,64.65
2019-03-25T00:11:35.010Z,65.27
2019-03-25T00:12:35.103Z,65.37
2019-03-25T00:13:35.130Z,64.96
2019-03-25T00:14:34.977Z,65.41
2019-03-25T00:15:34.946Z,65.92
2019-03-25T00:16:34.935Z,65.58
2019-03-25T00:17:35.181Z,65.69
2019-03-25T00:18:41.527Z,64.96
2019-03-25T00:19:34.912Z,64.86
2019-03-25T00:20:34.882Z,65.17
2019-03-25T00:21:36.230Z,64.24
2019-03-25T00:22:34.871Z,64.76
2019-03-25T00:23:35.043Z,64.76
2019-03-25T00:24:39.055Z,64.55
2019-03-25T00:25:34.896Z,64.96
2019-03-25T00:26:34.820Z,65.61
2019-03-25T00:27:34.829Z,65.82
2019-03-25T00:28:34.838Z,65.27
2019-03-25T00:29:34.889Z,65.06
2019-03-25T00:30:34.829Z,65.30
2019-03-25T00:31:34.778Z,65.30
2019-03-25T00:32:34.777Z,65.41
2019-03-25T00:33:34.746Z,65.30
2019-03-25T00:34:34.860Z,65.30
2019-03-25T00:35:34.876Z,66.13
2019-03-25T00:36:35.479Z,65.92
2019-03-25T00:37:34.705Z,66.13
2019-03-25T00:38:34.684Z,66.13
2019-03-25T00:39:34.685Z,66.33
2019-03-25T00:40:34.682Z,66.64
2019-03-25T00:41:34.797Z,66.54
2019-03-25T00:42:34.663Z,66.33
2019-03-25T00:43:34.664Z,66.44
2019-03-25T00:44:34.640Z,66.64
2019-03-25T00:45:34.804Z,66.99
2019-03-25T00:46:34.630Z,66.57
2019-03-25T00:47:34.657Z,66.99
2019-03-25T00:48:34.585Z,67.09
2019-03-25T00:49:34.595Z,67.27
2019-03-25T00:50:34.571Z,67.27
2019-03-25T00:51:34.716Z,67.16
2019-03-25T00:52:34.556Z,67.40
2019-03-25T00:53:34.526Z,67.37
2019-03-25T00:54:34.547Z,67.61
2019-03-25T00:55:34.502Z,67.68
2019-03-25T00:56:34.499Z,67.58
2019-03-25T00:57:34.635Z,67.30
2019-03-25T00:58:34.494Z,67.27
2019-03-25T00:59:34.665Z,67.78
2019-03-25T01:00:34.459Z,67.88
2019-03-25T01:01:34.491Z,67.30
2019-03-25T01:02:34.439Z,66.96
2019-03-25T01:03:35.914Z,67.27
2019-03-25T01:04:34.714Z,67.06
2019-03-25T01:05:34.393Z,67.06
2019-03-25T01:06:34.391Z,67.06
2019-03-25T01:07:34.372Z,66.13
2019-03-25T01:08:34.362Z,66.13
2019-03-25T01:09:34.363Z,65.82
2019-03-25T01:10:34.601Z,66.10
2019-03-25T01:11:34.437Z,66.10
2019-03-25T01:12:34.318Z,65.30
2019-03-25T01:13:34.307Z,65.06
2019-03-25T01:14:34.300Z,65.58
2019-03-25T01:15:34.445Z,65.27
2019-03-25T01:16:34.279Z,65.37
2019-03-25T01:17:34.273Z,66.72
2019-03-25T01:18:34.255Z,66.44
2019-03-25T01:19:34.257Z,66.33
2019-03-25T01:20:34.239Z,66.13
2019-03-25T01:21:34.407Z,66.75
2019-03-25T01:22:34.209Z,66.13
2019-03-25T01:23:34.209Z,66.26
2019-03-25T01:24:34.715Z,66.26
2019-03-25T01:25:34.179Z,66.64
2019-03-25T01:26:34.163Z,66.75
2019-03-25T01:27:34.254Z,66.06
2019-03-25T01:28:34.304Z,66.16
2019-03-25T01:29:34.137Z,66.16
2019-03-25T01:30:34.117Z,66.54
2019-03-25T01:31:34.128Z,66.54
2019-03-25T01:32:34.107Z,66.13
2019-03-25T01:33:34.225Z,66.16
2019-03-25T01:34:34.106Z,66.67
2019-03-25T01:35:34.059Z,66.67
2019-03-25T01:36:34.140Z,66.67
2019-03-25T01:37:34.085Z,66.88
2019-03-25T01:38:34.029Z,66.57
2019-03-25T01:39:34.379Z,67.06
2019-03-25T01:40:34.029Z,67.19
2019-03-25T01:41:33.999Z,67.19
2019-03-25T01:42:33.988Z,66.85
2019-03-25T01:43:34.120Z,67.16
2019-03-25T01:44:33.967Z,67.30
2019-03-25T01:45:33.957Z,67.19
2019-03-25T01:46:33.955Z,67.30
2019-03-25T01:47:33.954Z,67.40
2019-03-25T01:48:33.925Z,67.19
2019-03-25T01:49:34.064Z,66.78
2019-03-25T01:50:33.935Z,67.09
2019-03-25T01:51:33.916Z,67.40
2019-03-25T01:52:33.882Z,67.91
2019-03-25T01:53:33.978Z,67.50
2019-03-25T01:54:33.856Z,68.02
2019-03-25T01:55:34.229Z,67.82
2019-03-25T01:56:33.966Z,67.30
2019-03-25T01:57:33.819Z,67.82
2019-03-25T01:58:33.805Z,67.61
2019-03-25T01:59:33.803Z,68.12
2019-03-25T02:00:33.791Z,67.71
2019-03-25T02:01:33.786Z,67.64
2019-03-25T02:02:33.922Z,67.74
2019-03-25T02:03:33.773Z,67.85
2019-03-25T02:04:33.750Z,68.15
2019-03-25T02:05:33.745Z,67.74
2019-03-25T02:06:33.735Z,67.43
2019-03-25T02:07:33.893Z,67.54
2019-03-25T02:08:33.784Z,68.05
2019-03-25T02:09:33.687Z,68.98
2019-03-25T02:10:33.763Z,68.57
2019-03-25T02:11:33.675Z,68.88
2019-03-25T02:12:33.731Z,69.19
2019-03-25T02:13:33.819Z,68.91
2019-03-25T02:14:33.680Z,69.01
2019-03-25T02:15:33.645Z,68.67
2019-03-25T02:16:35.675Z,68.77
2019-03-25T02:17:33.910Z,68.77
2019-03-25T02:18:33.747Z,68.57
2019-03-25T02:19:33.586Z,68.15
2019-03-25T02:20:33.582Z,68.15
2019-03-25T02:21:33.562Z,67.85
2019-03-25T02:22:33.630Z,68.05
2019-03-25T02:23:33.626Z,67.77
2019-03-25T02:24:33.727Z,68.77
2019-03-25T02:25:33.643Z,67.98
2019-03-25T02:26:33.519Z,67.57
2019-03-25T02:27:33.700Z,67.67
2019-03-25T02:28:33.486Z,68.19
2019-03-25T02:29:33.885Z,68.40
2019-03-25T02:30:33.480Z,68.91
2019-03-25T02:31:33.447Z,68.91
2019-03-25T02:32:33.464Z,68.91
2019-03-25T02:33:33.445Z,69.01
2019-03-25T02:34:33.450Z,68.70
2019-03-25T02:35:35.101Z,69.15
2019-03-25T02:36:33.872Z,68.84
2019-03-25T02:37:33.452Z,69.87
2019-03-25T02:38:33.438Z,70.08
2019-03-25T02:39:33.446Z,69.67
2019-03-25T02:40:33.354Z,69.77
2019-03-25T02:41:33.646Z,68.74
2019-03-25T02:42:33.631Z,69.98
2019-03-25T02:43:33.333Z,69.67
2019-03-25T02:44:33.321Z,70.01
2019-03-25T02:45:33.670Z,70.53
2019-03-25T02:46:33.289Z,70.63
2019-03-25T02:47:33.282Z,70.42
2019-03-25T02:48:33.735Z,70.11
2019-03-25T02:49:39.978Z,70.42
2019-03-25T02:50:33.248Z,70.94
2019-03-25T02:51:33.227Z,70.97
2019-03-25T02:52:33.224Z,70.46
2019-03-25T02:53:33.262Z,71.08
2019-03-25T02:54:33.434Z,70.46
2019-03-25T02:55:41.381Z,71.18
2019-03-25T02:56:34.180Z,71.08
2019-03-25T02:57:33.169Z,70.97
2019-03-25T02:58:33.157Z,70.39
2019-03-25T02:59:33.355Z,71.28
2019-03-25T03:00:33.142Z,70.76
2019-03-25T03:01:33.128Z,71.18
2019-03-25T03:02:33.136Z,70.25
2019-03-25T03:03:33.103Z,70.49
2019-03-25T03:04:33.105Z,70.90
2019-03-25T03:05:33.299Z,70.97
2019-03-25T03:06:33.080Z,70.59
2019-03-25T03:07:33.059Z,70.90
2019-03-25T03:08:33.043Z,70.49
2019-03-25T03:09:33.033Z,70.90
2019-03-25T03:10:33.032Z,70.36
2019-03-25T03:11:33.139Z,70.76
2019-03-25T03:12:33.036Z,70.36
2019-03-25T03:13:32.999Z,71.18
2019-03-25T03:14:33.038Z,70.25
2019-03-25T03:15:32.976Z,71.39
2019-03-25T03:16:33.306Z,71.28
2019-03-25T03:17:33.198Z,70.46
2019-03-25T03:18:32.981Z,70.46
2019-03-25T03:19:32.929Z,69.53
2019-03-25T03:20:32.921Z,69.73
2019-03-25T03:21:32.951Z,69.70
2019-03-25T03:22:33.163Z,69.60
2019-03-25T03:23:32.889Z,69.60
2019-03-25T03:24:32.876Z,70.01
2019-03-25T03:25:32.882Z,69.90
2019-03-25T03:26:32.851Z,69.49
2019-03-25T03:27:32.986Z,69.90
2019-03-25T03:28:32.988Z,69.60
2019-03-25T03:29:32.823Z,69.67
2019-03-25T03:30:32.930Z,69.18
2019-03-25T03:31:33.072Z,68.63
2019-03-25T03:32:33.039Z,68.77
2019-03-25T03:33:32.776Z,68.98
2019-03-25T03:34:32.901Z,69.60
2019-03-25T03:35:32.778Z,69.21
2019-03-25T03:36:32.761Z,69.42
2019-03-25T03:37:32.742Z,69.94
2019-03-25T03:38:32.725Z,69.84
2019-03-25T03:39:32.817Z,69.42
2019-03-25T03:40:32.715Z,69.11
2019-03-25T03:41:32.685Z,70.36
2019-03-25T03:42:32.678Z,69.94
2019-03-25T03:43:32.834Z,69.53
2019-03-25T03:44:32.663Z,69.73
2019-03-25T03:45:32.788Z,69.32
2019-03-25T03:46:32.646Z,70.15
2019-03-25T03:47:32.619Z,70.04
2019-03-25T03:48:32.702Z,69.73
2019-03-25T03:49:32.605Z,69.53
2019-03-25T03:50:32.795Z,69.73
2019-03-25T03:51:32.727Z,69.73
2019-03-25T03:52:32.566Z,69.42
2019-03-25T03:53:32.563Z,69.73
2019-03-25T03:54:32.552Z,69.60
2019-03-25T03:55:32.552Z,69.29
2019-03-25T03:56:32.524Z,69.18
2019-03-25T03:57:32.642Z,69.49
2019-03-25T03:58:32.521Z,69.32
2019-03-25T03:59:32.504Z,69.18
2019-03-25T04:00:33.844Z,69.18
2019-03-25T04:01:32.862Z,69.32
2019-03-25T04:02:32.464Z,69.29
2019-03-25T04:03:32.462Z,68.77
2019-03-25T04:04:32.434Z,68.56
2019-03-25T04:05:32.593Z,68.98
2019-03-25T04:06:33.177Z,68.66
2019-03-25T04:07:35.397Z,69.08
2019-03-25T04:08:32.399Z,69.01
2019-03-25T04:09:32.388Z,68.70
2019-03-25T04:10:32.382Z,69.32
2019-03-25T04:11:32.383Z,69.01
2019-03-25T04:12:32.488Z,68.66
2019-03-25T04:13:32.351Z,69.39
2019-03-25T04:14:32.349Z,69.08
2019-03-25T04:15:32.321Z,69.08
2019-03-25T04:16:32.319Z,69.01
2019-03-25T04:17:32.294Z,69.21
2019-03-25T04:18:32.395Z,69.84
2019-03-25T04:19:32.285Z,69.94
2019-03-25T04:20:32.272Z,69.73
2019-03-25T04:21:32.254Z,70.46
2019-03-25T04:22:32.558Z,70.46
2019-03-25T04:23:32.575Z,70.28
2019-03-25T04:24:32.255Z,71.11
2019-03-25T04:25:32.217Z,70.67
2019-03-25T04:26:32.267Z,70.90
2019-03-25T04:27:32.197Z,71.42
2019-03-25T04:28:33.676Z,70.18
2019-03-25T04:29:32.175Z,70.90
2019-03-25T04:30:32.157Z,71.39
2019-03-25T04:31:32.240Z,70.28
2019-03-25T04:32:32.147Z,70.25
2019-03-25T04:33:32.145Z,70.76
2019-03-25T04:34:32.240Z,70.36
2019-03-25T04:35:32.112Z,70.56
2019-03-25T04:36:32.093Z,70.25
2019-03-25T04:37:32.101Z,70.76
2019-03-25T04:38:32.628Z,70.84
2019-03-25T04:39:32.120Z,70.25
2019-03-25T04:40:32.208Z,70.42
2019-03-25T04:41:32.052Z,69.29
2019-03-25T04:42:32.041Z,69.49
2019-03-25T04:43:32.024Z,69.29
2019-03-25T04:44:32.042Z,69.73
2019-03-25T04:45:32.428Z,69.08
2019-03-25T04:46:31.979Z,70.21
2019-03-25T04:47:31.976Z,70.21
2019-03-25T04:48:31.971Z,70.32
2019-03-25T04:49:31.965Z,69.60
2019-03-25T04:50:32.112Z,69.70
2019-03-25T04:51:31.937Z,69.60
2019-03-25T04:52:31.914Z,69.49
2019-03-25T04:53:31.915Z,69.80
2019-03-25T04:54:32.272Z,69.67
2019-03-25T04:55:31.908Z,69.87
2019-03-25T04:56:39.546Z,69.90
2019-03-25T04:57:34.237Z,69.70
2019-03-25T04:58:31.853Z,69.70
2019-03-25T04:59:31.844Z,70.01
2019-03-25T05:00:31.954Z,69.70
2019-03-25T05:01:31.829Z,69.90
2019-03-25T05:02:31.896Z,69.70
2019-03-25T05:03:31.792Z,69.25
2019-03-25T05:04:31.871Z,69.15
2019-03-25T05:05:31.781Z,68.84
2019-03-25T05:06:31.869Z,68.94
2019-03-25T05:07:31.775Z,68.74
2019-03-25T05:08:31.787Z,67.77
2019-03-25T05:09:31.958Z,67.80
2019-03-25T05:10:31.755Z,68.32
2019-03-25T05:11:31.806Z,68.08
2019-03-25T05:12:31.748Z,67.80
2019-03-25T05:13:31.797Z,67.80
2019-03-25T05:14:32.437Z,68.53
2019-03-25T05:15:32.135Z,67.70
2019-03-25T05:16:31.878Z,67.77
2019-03-25T05:17:32.015Z,68.01
2019-03-25T05:18:33.143Z,67.67
2019-03-25T05:19:31.619Z,67.57
2019-03-25T05:20:31.645Z,67.91
2019-03-25T05:21:31.602Z,67.91
2019-03-25T05:22:31.763Z,67.91
2019-03-25T05:23:31.928Z,68.19
2019-03-25T05:24:31.579Z,68.22
2019-03-25T05:25:31.590Z,67.80
2019-03-25T05:26:31.771Z,67.80
2019-03-25T05:27:31.541Z,67.91
2019-03-25T05:28:31.580Z,67.70
2019-03-25T05:29:31.526Z,68.22
2019-03-25T05:30:31.525Z,68.74
2019-03-25T05:31:31.780Z,68.94
2019-03-25T05:32:31.484Z,67.70
2019-03-25T05:33:31.486Z,67.70
2019-03-25T05:34:31.463Z,67.80
2019-03-25T05:35:31.462Z,67.67
2019-03-25T05:36:31.467Z,67.77
2019-03-25T05:37:31.784Z,67.77
2019-03-25T05:38:31.458Z,67.60
2019-03-25T05:39:32.263Z,67.98
2019-03-25T05:40:31.647Z,67.67
2019-03-25T05:41:31.450Z,67.67
2019-03-25T05:42:31.440Z,67.46
2019-03-25T05:43:31.463Z,68.08
2019-03-25T05:44:31.493Z,67.57
2019-03-25T05:45:31.413Z,67.46
2019-03-25T05:46:31.335Z,68.15
2019-03-25T05:47:31.342Z,68.05
2019-03-25T05:48:31.323Z,67.85
2019-03-25T05:49:31.300Z,67.54
2019-03-25T05:50:31.522Z,67.74
2019-03-25T05:51:31.292Z,68.57
2019-03-25T05:52:31.288Z,68.98
2019-03-25T05:53:31.256Z,69.09
2019-03-25T05:54:31.246Z,69.64
2019-03-25T05:55:31.447Z,69.53
2019-03-25T05:56:31.233Z,70.05
2019-03-25T05:57:31.213Z,71.29
2019-03-25T05:58:31.201Z,72.85
2019-03-25T05:59:31.193Z,72.64
2019-03-25T06:00:31.615Z,72.64
2019-03-25T06:01:31.295Z,73.39
2019-03-25T06:02:31.156Z,74.84
2019-03-25T06:03:31.135Z,75.81
2019-03-25T06:04:31.165Z,76.02
2019-03-25T06:05:31.115Z,76.02
2019-03-25T06:06:31.728Z,77.40
2019-03-25T06:07:31.110Z,78.23
2019-03-25T06:08:31.089Z,77.19
2019-03-25T06:09:31.090Z,78.33
2019-03-25T06:10:31.173Z,78.54
2019-03-25T06:11:31.053Z,78.85
2019-03-25T06:12:31.136Z,78.64
2019-03-25T06:13:31.038Z,78.54
2019-03-25T06:14:31.028Z,79.37
2019-03-25T06:15:31.032Z,79.06
2019-03-25T06:16:31.634Z,79.16
2019-03-25T06:17:33.910Z,79.23
2019-03-25T06:18:31.032Z,78.54
2019-03-25T06:19:31.352Z,78.92
2019-03-25T06:20:30.974Z,79.54
2019-03-25T06:21:31.400Z,78.81
2019-03-25T06:22:30.947Z,79.33
2019-03-25T06:23:31.277Z,79.74
2019-03-25T06:24:30.915Z,79.16
2019-03-25T06:25:31.088Z,80.09
2019-03-25T06:26:30.893Z,79.88
2019-03-25T06:27:30.881Z,80.92
2019-03-25T06:28:30.995Z,81.13
2019-03-25T06:29:33.468Z,82.27
2019-03-25T06:30:30.855Z,82.06
2019-03-25T06:31:30.872Z,82.41
2019-03-25T06:32:31.814Z,83.10
2019-03-25T06:33:31.415Z,83.31
2019-03-25T06:34:31.137Z,83.20
2019-03-25T06:35:30.796Z,82.79
2019-03-25T06:36:30.793Z,82.51
2019-03-25T06:37:30.807Z,82.48
2019-03-25T06:38:30.761Z,82.51
2019-03-25T06:39:31.290Z,83.24
2019-03-25T06:40:31.049Z,83.55
2019-03-25T06:41:30.793Z,84.38
2019-03-25T06:42:31.298Z,84.38
2019-03-25T06:43:30.926Z,85.42
2019-03-25T06:44:30.924Z,85.42
2019-03-25T06:45:30.767Z,85.21
2019-03-25T06:46:30.675Z,85.52
2019-03-25T06:47:30.813Z,84.83
2019-03-25T06:48:30.658Z,84.21
2019-03-25T06:49:30.637Z,86.49
2019-03-25T06:50:32.890Z,86.12
2019-03-25T06:51:30.727Z,84.88
2019-03-25T06:52:30.755Z,85.91
2019-03-25T06:53:30.619Z,86.22
2019-03-25T06:54:30.587Z,86.95
2019-03-25T06:55:30.613Z,86.74
2019-03-25T06:56:30.576Z,86.64
2019-03-25T06:57:30.694Z,86.12
2019-03-25T06:58:30.561Z,86.64
2019-03-25T06:59:30.543Z,86.22
2019-03-25T07:00:30.641Z,85.91
2019-03-25T07:01:30.953Z,85.29
2019-03-25T07:02:30.501Z,84.98
2019-03-25T07:03:30.625Z,84.98
2019-03-25T07:04:30.486Z,84.15
2019-03-25T07:05:30.831Z,85.29
2019-03-25T07:06:30.513Z,84.56
2019-03-25T07:07:30.452Z,84.36
2019-03-25T07:08:30.454Z,84.25
2019-03-25T07:09:30.437Z,84.46
2019-03-25T07:10:31.123Z,84.36
2019-03-25T07:11:32.421Z,84.05
2019-03-25T07:12:30.478Z,84.19
2019-03-25T07:13:30.743Z,84.25
2019-03-25T07:14:31.428Z,84.70
2019-03-25T07:15:31.308Z,84.91
2019-03-25T07:16:31.343Z,84.56
2019-03-25T07:17:30.916Z,84.56
2019-03-25T07:18:30.458Z,84.50
2019-03-25T07:19:30.432Z,84.91
2019-03-25T07:20:30.474Z,84.81
2019-03-25T07:21:30.955Z,85.12
2019-03-25T07:22:30.453Z,84.91
2019-03-25T07:23:32.468Z,84.67
2019-03-25T07:24:30.264Z,84.81
2019-03-25T07:25:30.245Z,84.98
2019-03-25T07:26:31.398Z,84.77
2019-03-25T07:27:36.663Z,84.77
2019-03-25T07:28:31.446Z,85.60
2019-03-25T07:29:30.207Z,84.67
2019-03-25T07:30:30.197Z,84.25
2019-03-25T07:31:30.208Z,84.15
2019-03-25T07:32:30.174Z,84.25
2019-03-25T07:33:30.184Z,85.08
2019-03-25T07:34:30.379Z,84.11
2019-03-25T07:35:30.179Z,84.63
2019-03-25T07:36:30.151Z,84.63
2019-03-25T07:37:30.130Z,85.08
2019-03-25T07:38:30.123Z,84.73
2019-03-25T07:39:30.098Z,84.11
2019-03-25T07:40:30.345Z,85.04
2019-03-25T07:41:30.070Z,84.52
2019-03-25T07:42:30.074Z,85.14
2019-03-25T07:43:30.056Z,84.83
2019-03-25T07:44:30.064Z,85.66
2019-03-25T07:45:30.136Z,84.90
2019-03-25T07:46:30.011Z,85.35
2019-03-25T07:47:30.018Z,85.21
2019-03-25T07:48:30.183Z,84.48
2019-03-25T07:49:29.986Z,84.90
2019-03-25T07:50:30.020Z,84.31
2019-03-25T07:51:29.954Z,84.38
2019-03-25T07:52:29.946Z,84.59
2019-03-25T07:53:30.111Z,84.80
2019-03-25T07:54:29.975Z,84.28
2019-03-25T07:55:32.340Z,84.28
2019-03-25T07:56:30.164Z,84.44
2019-03-25T07:57:29.960Z,84.13
2019-03-25T07:58:30.067Z,84.13
2019-03-25T07:59:30.318Z,84.44
2019-03-25T08:00:29.875Z,83.99
2019-03-25T08:01:29.888Z,82.65
2019-03-25T08:02:29.849Z,82.81
2019-03-25T08:03:29.980Z,82.75
2019-03-25T08:04:29.827Z,82.86
2019-03-25T08:05:29.935Z,83.06
2019-03-25T08:06:29.795Z,82.92
2019-03-25T08:07:29.797Z,83.33
2019-03-25T08:08:29.769Z,82.78
2019-03-25T08:09:29.774Z,81.81
2019-03-25T08:10:29.766Z,81.19
2019-03-25T08:11:29.907Z,80.77
2019-03-25T08:12:29.832Z,80.26
2019-03-25T08:13:29.713Z,80.98
2019-03-25T08:14:29.874Z,81.33
2019-03-25T08:15:29.700Z,81.33
2019-03-25T08:16:29.747Z,81.64
2019-03-25T08:17:29.899Z,81.64
2019-03-25T08:18:29.689Z,81.54
2019-03-25T08:19:29.665Z,81.64
2019-03-25T08:20:29.651Z,81.54
2019-03-25T08:21:29.632Z,81.95
2019-03-25T08:22:31.188Z,81.54
2019-03-25T08:23:29.857Z,80.91
2019-03-25T08:24:29.608Z,81.43
2019-03-25T08:25:29.593Z,81.43
2019-03-25T08:26:29.582Z,81.33
2019-03-25T08:27:29.652Z,81.33
2019-03-25T08:28:29.555Z,81.74
2019-03-25T08:29:30.451Z,81.54
2019-03-25T08:30:29.547Z,81.39
2019-03-25T08:31:29.625Z,80.88
2019-03-25T08:32:29.586Z,80.29
2019-03-25T08:33:29.531Z,80.74
2019-03-25T08:34:29.490Z,79.29
2019-03-25T08:35:29.989Z,78.28
2019-03-25T08:36:29.464Z,76.60
2019-03-25T08:37:29.460Z,76.56
2019-03-25T08:38:29.449Z,75.84
2019-03-25T08:39:29.445Z,75.84
2019-03-25T08:40:29.464Z,75.53
2019-03-25T08:41:30.049Z,75.29
2019-03-25T08:42:29.465Z,74.57
2019-03-25T08:43:30.121Z,74.88
2019-03-25T08:44:29.435Z,73.85
2019-03-25T08:45:29.378Z,74.26
2019-03-25T08:46:29.893Z,74.19
2019-03-25T08:47:29.349Z,75.36
2019-03-25T08:48:29.457Z,76.12
2019-03-25T08:49:29.330Z,76.53
2019-03-25T08:50:29.316Z,77.04
2019-03-25T08:51:30.371Z,77.15
2019-03-25T08:52:29.290Z,77.04
2019-03-25T08:53:29.306Z,77.04
2019-03-25T08:54:29.273Z,77.56
2019-03-25T08:55:29.269Z,77.25
2019-03-25T08:56:29.259Z,77.15
2019-03-25T08:57:29.497Z,76.84
2019-03-25T08:58:29.237Z,77.11
2019-03-25T08:59:29.695Z,75.53
2019-03-25T09:00:29.204Z,74.67
2019-03-25T09:01:29.198Z,73.50
2019-03-25T09:02:29.183Z,73.13
2019-03-25T09:03:29.720Z,70.90
2019-03-25T09:04:29.357Z,69.74
2019-03-25T09:05:29.173Z,65.06
2019-03-25T09:06:29.143Z,64.48
2019-03-25T09:07:29.127Z,63.22
2019-03-25T09:08:29.352Z,62.71
2019-03-25T09:09:29.232Z,63.28
2019-03-25T09:10:29.098Z,63.96
2019-03-25T09:11:29.091Z,66.17
2019-03-25T09:12:29.068Z,66.96
2019-03-25T09:13:29.062Z,68.53
2019-03-25T09:14:29.226Z,69.25
2019-03-25T09:15:29.623Z,69.38
2019-03-25T09:16:29.061Z,69.90
2019-03-25T09:17:29.017Z,69.90
2019-03-25T09:18:29.017Z,68.87
2019-03-25T09:19:29.195Z,69.21
2019-03-25T09:20:30.404Z,69.96
2019-03-25T09:21:29.200Z,70.31
2019-03-25T09:22:29.000Z,71.23
2019-03-25T09:23:28.959Z,71.64
2019-03-25T09:24:28.930Z,71.64
2019-03-25T09:25:28.936Z,71.20
2019-03-25T09:26:28.933Z,71.30
2019-03-25T09:27:29.018Z,71.30
2019-03-25T09:28:28.891Z,71.30
2019-03-25T09:29:28.911Z,70.89
2019-03-25T09:30:28.877Z,71.30
2019-03-25T09:31:36.726Z,71.48
2019-03-25T09:32:30.151Z,70.83
2019-03-25T09:33:28.864Z,70.18
2019-03-25T09:34:28.823Z,69.25
2019-03-25T09:35:28.881Z,69.18
2019-03-25T09:36:28.808Z,68.46
2019-03-25T09:37:28.991Z,69.52
2019-03-25T09:38:28.797Z,68.80
2019-03-25T09:39:28.800Z,69.42
2019-03-25T09:40:28.776Z,69.90
2019-03-25T09:41:28.744Z,70.10
2019-03-25T09:42:28.886Z,69.49
2019-03-25T09:43:28.823Z,69.59
2019-03-25T09:44:28.726Z,69.42
2019-03-25T09:45:28.709Z,69.31
2019-03-25T09:46:28.693Z,70.24
2019-03-25T09:47:28.726Z,69.83
2019-03-25T09:48:28.916Z,68.70
2019-03-25T09:49:28.766Z,69.21
2019-03-25T09:50:28.649Z,68.87
2019-03-25T09:51:28.660Z,68.56
2019-03-25T09:52:38.150Z,67.68
2019-03-25T09:53:29.791Z,66.51
2019-03-25T09:54:30.013Z,65.83
2019-03-25T09:55:28.721Z,63.42
2019-03-25T09:56:28.587Z,60.82
2019-03-25T09:57:28.579Z,59.59
2019-03-25T09:58:36.136Z,59.62
2019-03-25T09:59:29.963Z,61.16
2019-03-25T10:00:28.546Z,61.18
2019-03-25T10:01:28.539Z,61.70
2019-03-25T10:02:28.524Z,62.24
2019-03-25T10:03:28.514Z,62.93
2019-03-25T10:04:28.505Z,61.83
2019-03-25T10:05:28.686Z,61.83
2019-03-25T10:06:28.497Z,62.78
2019-03-25T10:07:28.626Z,63.53
2019-03-25T10:08:28.670Z,63.22
2019-03-25T10:09:28.529Z,63.94
2019-03-25T10:10:28.442Z,64.28
2019-03-25T10:11:28.440Z,64.18
2019-03-25T10:12:28.427Z,64.07
2019-03-25T10:13:28.397Z,64.15
2019-03-25T10:14:28.540Z,64.07
2019-03-25T10:15:29.062Z,64.15
2019-03-25T10:16:28.370Z,64.56
2019-03-25T10:17:28.364Z,64.48
2019-03-25T10:18:28.350Z,64.48
2019-03-25T10:19:30.164Z,64.90
2019-03-25T10:20:28.314Z,65.52
2019-03-25T10:21:28.307Z,65.31
2019-03-25T10:22:28.459Z,64.43
2019-03-25T10:23:28.287Z,63.27
2019-03-25T10:24:28.438Z,61.46
2019-03-25T10:25:28.274Z,60.54
2019-03-25T10:26:28.327Z,60.10
2019-03-25T10:27:28.385Z,60.31
2019-03-25T10:28:28.253Z,59.77
2019-03-25T10:29:28.232Z,60.28
2019-03-25T10:30:28.207Z,59.64
2019-03-25T10:31:28.199Z,58.30
2019-03-25T10:32:28.182Z,58.81
2019-03-25T10:33:28.328Z,59.02
2019-03-25T10:34:28.172Z,58.51
2019-03-25T10:35:28.159Z,59.56
2019-03-25T10:36:28.146Z,60.00
2019-03-25T10:37:28.293Z,60.10
2019-03-25T10:38:28.288Z,60.21
2019-03-25T10:39:28.110Z,61.46
2019-03-25T10:40:28.102Z,62.01
2019-03-25T10:41:28.097Z,63.17
2019-03-25T10:42:28.070Z,64.16
2019-03-25T10:43:28.079Z,62.90
2019-03-25T10:44:28.211Z,61.82
2019-03-25T10:45:28.051Z,60.84
2019-03-25T10:46:28.046Z,55.66
2019-03-25T10:47:28.033Z,53.29
2019-03-25T10:48:28.011Z,54.03
2019-03-25T10:49:28.000Z,54.03
2019-03-25T10:50:43.054Z,54.97
2019-03-25T10:51:28.038Z,55.56
2019-03-25T10:52:28.086Z,54.97
2019-03-25T10:53:29.008Z,55.10
2019-03-25T10:54:28.056Z,55.74
2019-03-25T10:55:28.241Z,54.49
2019-03-25T10:56:27.934Z,54.23
2019-03-25T10:57:27.912Z,53.39
2019-03-25T10:58:28.253Z,51.63
2019-03-25T10:59:28.043Z,51.40
2019-03-25T11:00:27.883Z,50.16
2019-03-25T11:01:27.870Z,48.64
2019-03-25T11:02:27.878Z,48.82
2019-03-25T11:03:27.858Z,46.21
2019-03-25T11:04:28.017Z,46.86
2019-03-25T11:05:27.819Z,45.83
2019-03-25T11:06:27.822Z,43.20
2019-03-25T11:07:29.467Z,42.55
2019-03-25T11:08:27.803Z,41.28
2019-03-25T11:09:27.780Z,37.41
2019-03-25T11:10:27.895Z,34.91
2019-03-25T11:11:27.830Z,34.20
2019-03-25T11:12:27.757Z,35.58
2019-03-25T11:13:27.792Z,34.76
2019-03-25T11:14:27.903Z,36.71
2019-03-25T11:15:27.859Z,33.99
2019-03-25T11:16:27.912Z,33.27
2019-03-25T11:17:27.902Z,31.50
2019-03-25T11:18:27.688Z,30.44
2019-03-25T11:19:27.673Z,28.67
2019-03-25T11:20:27.668Z,26.42
2019-03-25T11:21:28.019Z,26.39
2019-03-25T11:22:27.649Z,27.23
2019-03-25T11:23:27.878Z,26.21
2019-03-25T11:24:27.619Z,27.67
2019-03-25T11:25:27.697Z,27.33
2019-03-25T11:26:28.888Z,26.47
2019-03-25T11:27:27.859Z,27.29
2019-03-25T11:28:27.567Z,31.03
2019-03-25T11:29:27.559Z,32.26
2019-03-25T11:30:27.583Z,32.32
2019-03-25T11:31:27.538Z,34.19
2019-03-25T11:32:27.671Z,35.35
2019-03-25T11:33:27.855Z,36.47
2019-03-25T11:34:27.532Z,37.48
2019-03-25T11:35:27.506Z,36.00
2019-03-25T11:36:27.498Z,36.35
2019-03-25T11:37:27.509Z,39.06
2019-03-25T11:38:27.532Z,40.02
2019-03-25T11:39:27.455Z,43.35
2019-03-25T11:40:27.455Z,46.36
2019-03-25T11:41:27.437Z,48.35
2019-03-25T11:42:27.424Z,51.48
2019-03-25T11:43:27.428Z,53.39
2019-03-25T11:44:29.096Z,55.28
2019-03-25T11:45:27.441Z,57.25
2019-03-25T11:46:27.793Z,58.91
2019-03-25T11:47:27.629Z,59.48
2019-03-25T11:48:27.356Z,59.92
2019-03-25T11:49:27.470Z,60.76
2019-03-25T11:50:27.706Z,62.19
2019-03-25T11:51:27.364Z,61.69
2019-03-25T11:52:27.306Z,59.14
2019-03-25T11:53:27.297Z,52.28
2019-03-25T11:54:27.290Z,46.99
2019-03-25T11:55:27.467Z,42.90
2019-03-25T11:56:27.465Z,38.65
2019-03-25T11:57:27.248Z,37.27
2019-03-25T11:58:27.246Z,34.99
2019-03-25T11:59:27.399Z,32.34
2019-03-25T12:00:27.395Z,31.41
2019-03-25T12:01:27.206Z,31.18
2019-03-25T12:02:27.206Z,30.55
2019-03-25T12:03:27.213Z,31.65
2019-03-25T12:04:27.198Z,30.32
2019-03-25T12:05:27.169Z,29.41
2019-03-25T12:06:27.482Z,29.08
2019-03-25T12:07:27.139Z,27.49
2019-03-25T12:08:27.152Z,26.98
2019-03-25T12:09:27.138Z,26.76
2019-03-25T12:10:27.111Z,26.64
2019-03-25T12:11:27.356Z,26.25
2019-03-25T12:12:27.261Z,25.96
2019-03-25T12:13:27.097Z,26.58
2019-03-25T12:14:27.077Z,28.63
2019-03-25T12:15:27.062Z,27.19
2019-03-25T12:16:27.313Z,26.88
2019-03-25T12:17:27.062Z,26.16
2019-03-25T12:18:27.038Z,25.55
2019-03-25T12:19:27.830Z,26.42
2019-03-25T12:20:27.024Z,28.84
2019-03-25T12:21:27.032Z,31.04
2019-03-25T12:22:27.284Z,33.75
2019-03-25T12:23:26.965Z,33.27
2019-03-25T12:24:26.988Z,31.48
2019-03-25T12:25:27.365Z,30.24
2019-03-25T12:26:26.970Z,29.43
2019-03-25T12:27:27.026Z,27.39
2019-03-25T12:28:26.934Z,29.28
2019-03-25T12:29:30.387Z,30.96
2019-03-25T12:30:26.886Z,32.04
2019-03-25T12:31:27.063Z,33.92
2019-03-25T12:32:27.075Z,36.17
2019-03-25T12:33:27.724Z,36.72
2019-03-25T12:34:27.172Z,34.33
2019-03-25T12:35:26.853Z,33.90
2019-03-25T12:36:26.872Z,33.90
2019-03-25T12:37:28.374Z,33.87
2019-03-25T12:38:27.041Z,32.20
2019-03-25T12:39:26.804Z,34.25
2019-03-25T12:40:26.820Z,35.50
2019-03-25T12:41:26.780Z,35.66
2019-03-25T12:42:26.762Z,34.07
2019-03-25T12:43:26.763Z,35.46
2019-03-25T12:44:26.931Z,37.03
2019-03-25T12:45:28.428Z,39.11
2019-03-25T12:46:26.713Z,41.19
2019-03-25T12:47:26.705Z,43.06
2019-03-25T12:48:26.871Z,45.15
2019-03-25T12:49:26.702Z,46.32
2019-03-25T12:50:26.673Z,47.77
2019-03-25T12:51:26.660Z,48.91
2019-03-25T12:52:26.655Z,48.38